EGMC Airport Information

Runway Information
Runway 06 Length 5023 ft width 121 ft
Elevation 49 ft Threshold 571 ft Heading 54
Runway 24 Length 5023 ft Width 121 ft
Elevation 37 ft Threshold 479 ft Heading 234
Airport Frequencies
Type APP Name APP Frequency 130.775 MHZ
Type ATIS Name ATIS Frequency 121.8 MHZ
Type RDR Name RDR Frequency 130.775 MHZ
Type TWR Name TWR Frequency 127.725 MHZ
Airport Navaids
Airport Weather Information & NOTAM
ADDS - METARS form results

(0830 UTC 23 October 2021)
Data provider http://aviationweather.gov/metar/data/
 
METAR text: EGMC 230820Z 21004KT 9999 FEW030 BKN048 10/08 Q1026
Conditions at: EGMC (SOUTHEND-ON-SEA , GB) observed 0820 UTC 23 October 2021
Temperature: 10.0°C (50°F)
Dewpoint: 8.0°C (46°F) [RH = 87%]
Pressure (altimeter): 30.30 inches Hg (1026.0 mb)
Winds: from the SSW (210 degrees) at 5 MPH (4 knots; 2.1 m/s)
Visibility: 6 or more miles (10+ km)
Ceiling: 4800 feet AGL
Clouds: few clouds at 3000 feet AGL
broken clouds at 4800 feet AGL
Weather: no significant weather observed at this time

METAR text: EGMC 230750Z 22004KT 9999 FEW030 BKN047 10/08 Q1026
Conditions at: EGMC (SOUTHEND-ON-SEA , GB) observed 0750 UTC 23 October 2021
Temperature: 10.0°C (50°F)
Dewpoint: 8.0°C (46°F) [RH = 87%]
Pressure (altimeter): 30.30 inches Hg (1026.0 mb)
Winds: from the SW (220 degrees) at 5 MPH (4 knots; 2.1 m/s)
Visibility: 6 or more miles (10+ km)
Ceiling: 4700 feet AGL
Clouds: few clouds at 3000 feet AGL
broken clouds at 4700 feet AGL
Weather: no significant weather observed at this time

Forecast for: EGMC (SOUTHEND-ON-SEA , GB)
Text: TAF EGMC 230758Z 2309/2318 22005KT 9999 SCT045
Forecast period: 0900 to 1800 UTC 23 October 2021
Forecast type: FROM: standard forecast or significant change
Winds: from the SW (220 degrees) at 6 MPH (5 knots; 2.6 m/s)
Visibility: 6 or more miles (10+ km)
Ceiling: at least 12,000 feet AGL
Clouds: scattered clouds at 4500 feet AGL
Weather: no significant weather forecast for this period